Time;durP1;ratioP1;P1;durP2;ratioP2;P2;SDS_P1;SDS_P2;PMS_P1;PMS_P2;Temp;Humidity;BMP_temperature;BMP_pressure;BME280_temperature;BME280_humidity;BME280_pressure;Samples;Min_cycle;Max_cycle;Signal;HPM_P1;HPM_P2
2022/01/22 00:01:17;;;;;;;0.97;0.70;;;1.50;48.60;;;;;;6241097;28;20201;-59
2022/01/22 00:04:18;;;;;;;0.70;0.50;;;1.30;48.60;;;;;;6229796;28;20202;-59
2022/01/22 00:07:19;;;;;;;1.77;0.60;;;1.30;49.20;;;;;;6225605;28;20202;-58
2022/01/22 00:10:23;;;;;;;0.50;0.50;;;1.10;49.90;;;;;;6217040;28;20203;-59
2022/01/22 00:16:43;;;;;;;0.90;0.77;;;1.00;50.70;;;;;;6232116;28;20247;-59
2022/01/22 00:19:43;;;;;;;1.07;0.90;;;0.90;50.70;;;;;;6241495;28;20198;-59
2022/01/22 00:22:45;;;;;;;1.77;1.30;;;0.90;50.70;;;;;;6225530;28;20223;-60
2022/01/22 00:25:46;;;;;;;2.77;1.53;;;0.80;50.70;;;;;;6225127;28;20185;-58
2022/01/22 00:28:46;;;;;;;1.30;1.20;;;0.80;50.90;;;;;;6208296;28;20281;-59
2022/01/22 00:31:47;;;;;;;1.57;1.10;;;0.80;51.40;;;;;;6241615;28;20187;-60
2022/01/22 00:34:48;;;;;;;0.80;0.70;;;0.60;51.10;;;;;;6237812;28;20202;-59
2022/01/22 00:37:50;;;;;;;6.43;1.07;;;0.60;51.00;;;;;;6241467;28;20225;-59
2022/01/22 00:40:51;;;;;;;0.60;0.60;;;0.60;51.50;;;;;;6225638;28;20234;-60
2022/01/22 00:43:53;;;;;;;2.07;0.93;;;0.40;52.20;;;;;;6291887;28;20238;-58
2022/01/22 00:46:54;;;;;;;1.73;0.80;;;0.30;52.60;;;;;;6290488;28;20377;-60
2022/01/22 00:49:55;;;;;;;2.07;1.10;;;0.30;52.40;;;;;;6268411;28;20233;-60
2022/01/22 00:52:56;;;;;;;2.87;1.00;;;0.30;52.80;;;;;;6229898;28;20210;-60
2022/01/22 00:55:57;;;;;;;1.50;1.00;;;0.10;53.40;;;;;;6224843;28;20198;-60
2022/01/22 00:58:58;;;;;;;0.97;0.90;;;0.10;53.40;;;;;;6224360;28;20207;-60
2022/01/22 01:01:58;;;;;;;2.17;1.10;;;0.10;54.10;;;;;;6233122;28;20244;-60
2022/01/22 01:04:59;;;;;;;1.50;1.20;;;0.00;54.90;;;;;;6240625;28;20206;-60
2022/01/22 01:08:01;;;;;;;1.83;0.90;;;-3276.60;54.50;;;;;;6255454;28;20232;-60
2022/01/22 01:11:04;;;;;;;1.50;0.90;;;-3276.70;55.50;;;;;;6207482;28;20191;-60
2022/01/22 01:14:08;;;;;;;2.67;1.10;;;-3276.70;54.90;;;;;;6241028;28;20327;-59
2022/01/22 01:17:22;;;;;;;3.13;0.73;;;-3276.70;55.70;;;;;;6239672;28;20222;-59
2022/01/22 01:33:51;;;;;;;1.90;1.20;;;-3276.40;56.30;;;;;;6226913;28;20207;-59
2022/01/22 01:36:53;;;;;;;2.00;1.10;;;-3276.30;56.40;;;;;;6216845;28;20211;-59
2022/01/22 01:40:00;;;;;;;1.73;1.10;;;-3276.30;57.00;;;;;;6265160;28;20178;-59
2022/01/22 01:46:04;;;;;;;2.70;1.37;;;-3276.20;56.70;;;;;;6219765;28;20202;-58
2022/01/22 01:49:05;;;;;;;3.27;1.13;;;-3276.10;56.90;;;;;;6207627;28;20194;-59
2022/01/22 01:52:11;;;;;;;2.07;1.70;;;-3276.20;57.20;;;;;;6245518;28;20209;-58
2022/01/22 01:55:17;;;;;;;2.53;1.30;;;-3276.30;57.20;;;;;;6240231;28;20198;-59
2022/01/22 01:58:18;;;;;;;3.23;1.67;;;-3276.20;57.50;;;;;;6231888;28;20242;-59
2022/01/22 02:01:22;;;;;;;2.83;1.40;;;-3276.10;57.70;;;;;;6223340;28;20279;-59
2022/01/22 02:04:23;;;;;;;2.20;1.20;;;-3276.10;58.00;;;;;;6252598;28;20199;-58
2022/01/22 02:07:24;;;;;;;1.73;1.20;;;-3276.10;58.00;;;;;;6207488;28;20670;-58
2022/01/22 02:10:42;;;;;;;1.70;1.13;;;-3276.00;58.30;;;;;;6223796;28;20210;-59
2022/01/22 02:23:30;;;;;;;1.60;0.80;;;-3276.10;58.50;;;;;;6238741;28;20247;-59
2022/01/22 02:24:05;;;;;;;1.67;1.00;;;-3276.00;58.30;;;;;;6228619;28;20184;-59
2022/01/22 02:27:08;;;;;;;2.10;1.20;;;-3275.80;58.80;;;;;;6211892;28;20209;-59
2022/01/22 02:30:18;;;;;;;3.63;1.17;;;-3275.70;59.70;;;;;;6244329;28;20191;-58
2022/01/22 02:34:09;;;;;;;1.30;0.93;;;-3275.80;59.60;;;;;;6234837;28;20249;-58
2022/01/22 02:37:15;;;;;;;1.27;0.93;;;-3275.70;59.70;;;;;;6227632;28;20221;-59
2022/01/22 02:40:43;;;;;;;2.37;0.83;;;-3275.60;59.90;;;;;;6224361;28;20196;-59
2022/01/22 02:43:37;;;;;;;2.27;1.50;;;-3275.70;60.30;;;;;;6267349;28;20240;-60
2022/01/22 02:46:42;;;;;;;1.43;1.00;;;-3275.70;60.30;;;;;;6210942;28;20219;-58
2022/01/22 02:49:43;;;;;;;2.17;0.97;;;-3275.60;60.30;;;;;;6211367;28;20228;-59
2022/01/22 02:52:47;;;;;;;2.00;1.30;;;-3275.70;60.50;;;;;;6233147;28;20192;-60
2022/01/22 02:55:48;;;;;;;2.63;1.33;;;-3275.70;60.60;;;;;;6219145;28;20301;-60
2022/01/22 02:58:52;;;;;;;2.07;1.47;;;-3275.50;60.70;;;;;;6222357;28;20261;-59
2022/01/22 03:01:54;;;;;;;1.83;1.53;;;-3275.50;60.90;;;;;;6210742;28;20189;-59
2022/01/22 03:04:56;;;;;;;1.83;1.23;;;-3275.40;61.40;;;;;;6227387;28;20201;-58
2022/01/22 03:07:58;;;;;;;1.43;1.30;;;-3275.40;61.80;;;;;;6226633;28;20218;-59
2022/01/22 03:11:04;;;;;;;2.80;1.30;;;-3275.30;61.70;;;;;;6243487;28;20198;-59
2022/01/22 03:14:57;;;;;;;1.40;1.10;;;-3275.30;61.90;;;;;;6226780;28;20244;-58
2022/01/22 03:27:23;;;;;;;1.00;0.90;;;-3275.50;61.90;;;;;;6251001;28;20196;-59
2022/01/22 03:30:24;;;;;;;2.10;1.13;;;-3275.40;61.20;;;;;;6268768;28;20190;-59
2022/01/22 03:33:25;;;;;;;1.63;1.30;;;-3275.40;61.40;;;;;;6217298;28;20215;-60
2022/01/22 03:36:32;;;;;;;1.53;1.23;;;-3275.40;61.80;;;;;;6234761;28;20279;-60
2022/01/22 03:39:35;;;;;;;1.43;1.20;;;-3275.50;61.60;;;;;;6219687;28;20184;-60
2022/01/22 03:42:38;;;;;;;2.40;1.10;;;-3275.50;62.00;;;;;;6237526;28;20239;-60
2022/01/22 03:45:39;;;;;;;1.80;1.17;;;-3275.50;62.50;;;;;;6235088;28;20287;-58
2022/01/22 03:48:40;;;;;;;2.13;1.20;;;-3275.40;62.40;;;;;;6222522;28;20202;-60
2022/01/22 03:51:43;;;;;;;2.27;1.20;;;-3275.50;62.30;;;;;;6225809;28;20282;-60
2022/01/22 03:54:45;;;;;;;2.17;1.40;;;-3275.60;62.60;;;;;;6225953;28;20194;-60
2022/01/22 03:57:50;;;;;;;2.03;1.40;;;-3275.70;62.80;;;;;;6241751;28;20219;-60
2022/01/22 04:01:03;;;;;;;1.67;1.10;;;-3275.70;62.50;;;;;;6218510;28;20200;-60
2022/01/22 04:04:10;;;;;;;1.93;1.30;;;-3275.80;62.60;;;;;;6217857;28;20204;-60
2022/01/22 04:10:30;;;;;;;2.13;1.00;;;-3276.00;62.50;;;;;;6201350;28;20176;-61
2022/01/22 04:13:34;;;;;;;2.50;1.37;;;-3276.10;61.90;;;;;;6200978;28;20194;-60
2022/01/22 04:16:42;;;;;;;1.33;1.13;;;-3276.20;61.20;;;;;;6216955;28;20180;-60
2022/01/22 04:29:28;;;;;;;2.03;1.20;;;-3276.30;61.60;;;;;;6258443;28;20206;-60
2022/01/22 04:32:31;;;;;;;3.47;1.57;;;-3276.20;62.00;;;;;;6224985;28;20199;-60
2022/01/22 04:35:32;;;;;;;1.43;1.23;;;-3276.30;62.10;;;;;;6222609;28;20192;-59
2022/01/22 04:38:33;;;;;;;2.37;1.37;;;-3276.10;62.40;;;;;;6201597;28;20211;-60
2022/01/22 04:41:34;;;;;;;1.83;1.30;;;-3276.20;61.90;;;;;;6229198;28;20194;-59
2022/01/22 04:44:41;;;;;;;2.87;1.27;;;-3276.20;61.70;;;;;;6235933;28;20199;-59
2022/01/22 04:48:08;;;;;;;1.27;1.07;;;-3276.20;61.80;;;;;;6236813;28;20290;-60
2022/01/22 04:57:49;;;;;;;2.23;1.37;;;-3276.30;62.30;;;;;;6257347;28;20242;-58
2022/01/22 05:00:50;;;;;;;2.50;1.07;;;-3276.30;62.10;;;;;;6238774;28;20198;-58
2022/01/22 05:04:09;;;;;;;1.87;1.50;;;-3276.30;62.50;;;;;;6274238;28;20198;-60
2022/01/22 05:07:28;;;;;;;1.80;1.03;;;-3276.40;62.80;;;;;;6226940;28;20231;-60
2022/01/22 05:10:49;;;;;;;1.83;1.10;;;-3276.40;62.80;;;;;;6247667;28;20207;-60
2022/01/22 05:13:53;;;;;;;1.17;0.93;;;-3276.30;62.90;;;;;;6231121;28;20198;-60
2022/01/22 05:16:56;;;;;;;1.20;1.10;;;-3276.30;63.10;;;;;;6254843;28;20236;-60
2022/01/22 05:20:22;;;;;;;2.67;1.00;;;-3276.30;62.70;;;;;;6226533;28;20194;-60
2022/01/22 05:23:25;;;;;;;3.00;1.20;;;-3276.30;62.70;;;;;;6225370;28;20203;-59
2022/01/22 05:39:49;;;;;;;1.30;1.20;;;-3276.30;63.30;;;;;;6255379;28;20200;-54
2022/01/22 05:42:50;;;;;;;2.23;1.10;;;-3276.30;63.40;;;;;;6239960;28;20238;-56
2022/01/22 05:45:52;;;;;;;2.47;1.37;;;-3276.30;63.00;;;;;;6221908;28;20190;-58
2022/01/22 05:48:53;;;;;;;2.90;1.20;;;-3276.30;62.70;;;;;;6225970;28;20198;-59
2022/01/22 05:51:56;;;;;;;2.27;1.20;;;-3276.30;62.80;;;;;;6238136;28;20205;-58
2022/01/22 05:55:24;;;;;;;1.10;0.90;;;-3276.30;62.70;;;;;;6240269;28;20202;-58
2022/01/22 06:01:43;;;;;;;1.73;1.00;;;-3276.30;63.10;;;;;;6270745;28;20194;-59
2022/01/22 06:04:53;;;;;;;3.70;1.93;;;-3276.20;63.90;;;;;;6241399;28;20195;-58
2022/01/22 06:07:56;;;;;;;2.30;1.23;;;-3276.30;62.70;;;;;;6241513;28;20197;-61
2022/01/22 06:11:07;;;;;;;3.80;2.70;;;-3276.30;62.50;;;;;;6244589;28;20206;-61
2022/01/22 06:14:08;;;;;;;3.07;1.23;;;-3276.40;62.10;;;;;;6253578;28;20195;-59
2022/01/22 06:17:18;;;;;;;1.80;1.10;;;-3276.40;62.50;;;;;;6235178;28;20236;-62
2022/01/22 06:20:27;;;;;;;1.20;1.10;;;-3276.30;62.40;;;;;;6259293;28;20195;-59
2022/01/22 06:23:28;;;;;;;3.13;1.20;;;-3276.30;62.20;;;;;;6253667;28;20185;-59
2022/01/22 06:26:29;;;;;;;2.20;1.20;;;-3276.40;62.70;;;;;;6259986;28;20217;-60
2022/01/22 06:29:30;;;;;;;2.17;1.70;;;-3276.50;62.60;;;;;;6252250;28;20201;-59
2022/01/22 06:32:32;;;;;;;2.60;1.20;;;-3276.30;62.70;;;;;;6236820;28;20191;-60
2022/01/22 06:35:32;;;;;;;3.20;1.77;;;-3276.30;63.00;;;;;;6236125;28;20220;-61
2022/01/22 06:38:34;;;;;;;3.93;1.70;;;-3276.30;63.40;;;;;;6263440;28;20244;-61
2022/01/22 06:41:54;;;;;;;1.77;1.07;;;-3276.40;63.80;;;;;;6265656;28;20319;-60
2022/01/22 06:45:08;;;;;;;2.17;1.43;;;-3276.20;63.80;;;;;;6235275;28;20210;-60
2022/01/22 06:48:15;;;;;;;4.63;1.90;;;-3276.30;63.90;;;;;;6236319;28;20194;-61
2022/01/22 06:51:35;;;;;;;2.63;2.10;;;-3276.40;63.80;;;;;;6224182;28;20175;-60
2022/01/22 06:54:35;;;;;;;3.13;1.70;;;-3276.40;63.40;;;;;;6235139;28;20204;-58
2022/01/22 06:57:36;;;;;;;1.93;1.60;;;-3276.50;63.80;;;;;;6251309;28;20252;-59
2022/01/22 07:00:40;;;;;;;2.23;1.60;;;-3276.50;64.20;;;;;;6218841;28;20207;-59
2022/01/22 07:04:07;;;;;;;2.30;1.83;;;-3276.60;64.50;;;;;;6238916;28;20198;-59
2022/01/22 07:07:13;;;;;;;1.93;1.70;;;-3276.70;65.00;;;;;;6225782;28;20208;-58
2022/01/22 07:10:15;;;;;;;3.10;2.00;;;-3276.70;66.60;;;;;;6257058;28;20198;-59
2022/01/22 07:13:16;;;;;;;1.63;1.50;;;-3276.70;67.30;;;;;;6220373;28;20243;-58
2022/01/22 07:16:19;;;;;;;2.40;1.70;;;0.00;68.00;;;;;;6259814;28;20200;-58
2022/01/22 07:19:26;;;;;;;4.20;2.17;;;0.00;69.10;;;;;;6251976;28;20237;-63
2022/01/22 07:22:50;;;;;;;3.10;1.90;;;0.10;69.40;;;;;;6255013;28;20209;-59
2022/01/22 07:26:30;;;;;;;5.40;2.87;;;0.10;68.10;;;;;;6248308;28;20246;-62
2022/01/22 07:29:49;;;;;;;7.80;3.70;;;0.00;68.50;;;;;;6239265;28;20190;-61
2022/01/22 07:32:50;;;;;;;4.47;2.93;;;0.10;68.80;;;;;;6243090;28;20175;-61
2022/01/22 07:35:53;;;;;;;4.57;3.10;;;0.10;71.60;;;;;;6235085;28;20197;-61
2022/01/22 07:38:55;;;;;;;4.90;2.80;;;0.20;71.60;;;;;;6259495;28;20229;-61
2022/01/22 07:41:57;;;;;;;5.00;2.57;;;0.30;71.90;;;;;;6239588;28;20235;-61
2022/01/22 07:45:26;;;;;;;3.63;2.20;;;0.40;72.50;;;;;;6239437;28;20220;-62
2022/01/22 07:48:35;;;;;;;1.27;1.17;;;0.70;73.20;;;;;;6261867;28;20290;-61
2022/01/22 07:51:45;;;;;;;0.77;0.70;;;1.00;75.00;;;;;;6251166;28;20175;-61
2022/01/22 07:54:46;;;;;;;0.60;0.60;;;1.40;75.60;;;;;;6258534;28;20207;-62
2022/01/22 07:57:49;;;;;;;0.40;0.40;;;2.00;74.20;;;;;;6258512;28;20214;-56
2022/01/22 08:00:54;;;;;;;0.30;0.30;;;2.20;73.50;;;;;;6275522;28;20183;-56
2022/01/22 08:03:55;;;;;;;0.40;0.33;;;2.60;72.50;;;;;;6241509;28;20196;-63
2022/01/22 08:07:16;;;;;;;0.30;0.30;;;2.80;71.20;;;;;;6247190;28;20207;-62
2022/01/22 08:10:32;;;;;;;0.40;0.40;;;3.00;70.50;;;;;;6260404;28;20202;-62
2022/01/22 08:13:33;;;;;;;0.70;0.43;;;3.10;69.90;;;;;;6250840;28;20200;-62
2022/01/22 08:16:35;;;;;;;0.57;0.23;;;3.40;68.80;;;;;;6251797;28;20194;-62
2022/01/22 08:19:36;;;;;;;0.23;0.20;;;3.60;68.10;;;;;;6236187;28;20222;-62
2022/01/22 08:22:44;;;;;;;0.50;0.30;;;3.60;67.60;;;;;;6254333;28;20185;-63
2022/01/22 08:26:07;;;;;;;0.20;0.20;;;3.80;66.80;;;;;;6230746;28;20209;-63
2022/01/22 08:29:25;;;;;;;0.70;0.30;;;4.00;65.70;;;;;;6244317;28;20221;-62
2022/01/22 08:38:49;;;;;;;0.27;0.20;;;4.30;64.10;;;;;;6274672;28;20214;-62
2022/01/22 08:41:49;;;;;;;0.20;0.20;;;4.50;63.40;;;;;;6257235;28;20324;-62
2022/01/22 08:44:50;;;;;;;0.20;0.20;;;4.40;63.50;;;;;;6258929;28;20189;-61
2022/01/22 08:47:52;;;;;;;0.30;0.30;;;4.50;63.20;;;;;;6233506;28;20645;-62
2022/01/22 08:50:53;;;;;;;0.97;0.43;;;4.60;62.50;;;;;;6255251;28;20245;-61
2022/01/22 08:53:55;;;;;;;0.10;0.10;;;4.80;61.40;;;;;;6248811;28;20248;-62
2022/01/22 08:56:56;;;;;;;0.70;0.20;;;4.90;61.40;;;;;;6221544;28;20213;-62
2022/01/22 08:59:57;;;;;;;0.20;0.20;;;5.00;60.80;;;;;;6252617;28;20196;-62
2022/01/22 09:02:59;;;;;;;0.27;0.23;;;5.00;60.90;;;;;;6255468;28;20194;-61
2022/01/22 09:06:26;;;;;;;2.20;0.20;;;5.10;60.90;;;;;;6235901;28;20206;-61
2022/01/22 09:09:53;;;;;;;0.10;0.10;;;5.30;59.50;;;;;;6238187;28;20205;-62
2022/01/22 09:13:14;;;;;;;0.63;0.33;;;5.30;59.80;;;;;;6224218;28;20202;-62
2022/01/22 09:16:37;;;;;;;0.10;0.10;;;5.30;59.90;;;;;;6266710;28;20221;-62
2022/01/22 09:19:39;;;;;;;0.10;0.10;;;5.40;59.30;;;;;;6232304;28;20206;-62
2022/01/22 09:22:48;;;;;;;0.20;0.20;;;5.50;59.10;;;;;;6272052;28;20356;-63
2022/01/22 09:25:50;;;;;;;0.30;0.30;;;5.40;59.70;;;;;;6223287;28;20304;-62
2022/01/22 09:28:51;;;;;;;0.47;0.40;;;5.40;59.50;;;;;;6264068;28;20216;-62
2022/01/22 09:31:54;;;;;;;0.13;0.13;;;5.40;59.60;;;;;;6241551;28;20197;-59
2022/01/22 09:35:24;;;;;;;0.20;0.20;;;5.50;59.10;;;;;;6241269;28;20201;-62
2022/01/22 09:39:01;;;;;;;0.20;0.20;;;5.50;58.80;;;;;;6193212;28;20286;-62
2022/01/22 09:42:15;;;;;;;0.20;0.20;;;5.60;59.00;;;;;;6246224;28;20244;-61
2022/01/22 09:45:29;;;;;;;0.20;0.20;;;5.70;58.10;;;;;;6246592;28;20265;-59
2022/01/22 09:48:50;;;;;;;0.13;0.13;;;5.60;58.70;;;;;;6261569;28;20243;-60
2022/01/22 09:52:07;;;;;;;1.27;0.20;;;5.70;57.80;;;;;;6247195;28;20209;-60
2022/01/22 09:55:27;;;;;;;0.47;0.20;;;5.70;57.80;;;;;;6253797;28;20175;-62
2022/01/22 09:58:39;;;;;;;0.20;0.20;;;5.90;57.50;;;;;;6254753;28;20271;-60
2022/01/22 10:02:21;;;;;;;0.60;0.20;;;5.90;56.70;;;;;;6172608;28;20221;-61
2022/01/22 10:05:36;;;;;;;0.80;0.40;;;6.10;56.20;;;;;;6232751;28;20187;-61
2022/01/22 10:09:25;;;;;;;0.50;0.40;;;6.10;56.10;;;;;;6253147;28;20210;-57
2022/01/22 10:12:53;;;;;;;1.07;0.50;;;6.30;57.30;;;;;;6239671;28;20206;-59
2022/01/22 10:16:31;;;;;;;1.40;0.80;;;6.50;54.30;;;;;;6238313;28;20195;-60
2022/01/22 10:19:31;;;;;;;0.30;0.30;;;6.60;53.30;;;;;;6253482;28;20225;-62
2022/01/22 10:22:44;;;;;;;0.20;0.20;;;6.60;52.70;;;;;;6234979;28;20190;-61
2022/01/22 10:25:55;;;;;;;0.20;0.20;;;6.70;52.50;;;;;;6242565;28;20195;-61
2022/01/22 10:29:01;;;;;;;0.20;0.20;;;6.80;51.70;;;;;;6269049;28;20195;-61
2022/01/22 10:32:03;;;;;;;0.20;0.20;;;6.90;50.80;;;;;;6238641;28;20198;-61
2022/01/22 10:35:25;;;;;;;0.20;0.20;;;6.90;50.90;;;;;;6249087;28;20198;-63
2022/01/22 10:39:23;;;;;;;1.73;0.30;;;7.00;50.90;;;;;;6261175;28;20225;-62
2022/01/22 10:42:26;;;;;;;0.13;0.13;;;7.00;50.70;;;;;;6236497;28;20246;-61
2022/01/22 10:45:31;;;;;;;0.43;0.40;;;7.00;50.70;;;;;;6258047;28;20194;-60
2022/01/22 10:48:32;;;;;;;0.43;0.23;;;7.00;50.90;;;;;;6244916;28;20228;-60
2022/01/22 10:51:50;;;;;;;0.30;0.30;;;7.10;50.90;;;;;;6271279;28;20208;-62
2022/01/22 10:55:01;;;;;;;0.23;0.23;;;7.10;50.70;;;;;;6251343;28;20240;-62
2022/01/22 10:58:09;;;;;;;0.30;0.30;;;7.20;50.20;;;;;;6268475;28;20207;-62
2022/01/22 11:01:11;;;;;;;0.20;0.20;;;7.40;49.40;;;;;;6242414;28;20278;-62
2022/01/22 11:04:18;;;;;;;1.20;0.40;;;7.70;49.20;;;;;;6255286;28;20194;-62
2022/01/22 11:07:21;;;;;;;0.10;0.10;;;7.70;48.20;;;;;;6246740;28;20714;-60
2022/01/22 11:10:22;;;;;;;0.67;0.20;;;7.80;47.60;;;;;;6260032;28;20225;-61
2022/01/22 11:13:23;;;;;;;0.20;0.20;;;7.80;47.90;;;;;;6242688;28;20198;-61
2022/01/22 11:16:25;;;;;;;0.30;0.30;;;7.70;47.70;;;;;;6225797;28;20205;-62
2022/01/22 11:19:30;;;;;;;0.50;0.40;;;7.60;47.80;;;;;;6252960;28;20227;-61
2022/01/22 11:22:33;;;;;;;0.20;0.20;;;7.60;48.50;;;;;;6253312;28;20193;-61
2022/01/22 11:25:35;;;;;;;0.30;0.30;;;7.60;47.80;;;;;;6242885;28;20225;-62
2022/01/22 11:28:38;;;;;;;2.47;0.30;;;7.60;47.70;;;;;;6242662;28;20201;-61
2022/01/22 11:31:40;;;;;;;0.20;0.20;;;7.60;47.60;;;;;;6242588;28;20186;-62
2022/01/22 11:34:44;;;;;;;3.23;0.53;;;7.70;47.80;;;;;;6250697;28;20197;-61
2022/01/22 11:38:15;;;;;;;0.43;0.30;;;7.80;47.30;;;;;;6241778;28;20237;-61
2022/01/22 11:41:21;;;;;;;0.50;0.20;;;7.80;47.00;;;;;;6249648;28;20621;-60
2022/01/22 11:44:47;;;;;;;0.10;0.10;;;7.90;46.30;;;;;;6248510;28;20233;-61
2022/01/22 11:48:21;;;;;;;0.50;0.50;;;7.90;46.60;;;;;;6269850;28;20199;-62
2022/01/22 11:51:24;;;;;;;0.40;0.30;;;8.00;45.10;;;;;;6258776;28;20193;-62
2022/01/22 11:54:25;;;;;;;0.33;0.23;;;8.20;47.60;;;;;;6283632;28;20193;-62
2022/01/22 11:57:28;;;;;;;0.57;0.50;;;8.10;45.40;;;;;;6234156;28;20206;-61
2022/01/22 12:00:29;;;;;;;0.27;0.20;;;8.10;43.90;;;;;;6221492;28;20183;-61
2022/01/22 12:03:30;;;;;;;1.10;0.40;;;8.10;44.40;;;;;;6263643;28;20189;-61
2022/01/22 12:06:31;;;;;;;1.80;0.30;;;8.20;44.20;;;;;;6258326;28;20205;-61
2022/01/22 12:09:42;;;;;;;0.20;0.20;;;8.30;43.10;;;;;;6258269;28;20181;-61
2022/01/22 12:16:13;;;;;;;0.20;0.20;;;8.20;43.70;;;;;;6227669;28;20202;-59
2022/01/22 12:19:46;;;;;;;0.13;0.13;;;8.30;43.40;;;;;;6274112;28;20230;-60
2022/01/22 12:22:48;;;;;;;0.47;0.30;;;8.40;42.60;;;;;;6257704;28;20243;-60
2022/01/22 12:25:50;;;;;;;0.30;0.30;;;8.70;41.30;;;;;;6233667;28;20190;-62
2022/01/22 12:28:51;;;;;;;0.10;0.10;;;8.80;41.70;;;;;;6274798;28;20186;-62
2022/01/22 12:32:16;;;;;;;0.40;0.30;;;8.90;40.80;;;;;;6273499;28;20208;-62
2022/01/22 12:35:42;;;;;;;0.30;0.30;;;9.00;41.10;;;;;;6285946;28;20201;-63
2022/01/22 12:41:55;;;;;;;1.13;0.30;;;9.30;39.40;;;;;;6266531;28;20196;-62
2022/01/22 12:45:07;;;;;;;0.50;0.20;;;9.60;38.90;;;;;;6241261;28;20259;-61
2022/01/22 12:48:10;;;;;;;2.13;0.43;;;9.80;39.80;;;;;;6240867;28;20202;-62
2022/01/22 12:51:11;;;;;;;0.20;0.20;;;9.80;37.60;;;;;;6258816;28;20190;-61
2022/01/22 12:54:12;;;;;;;1.10;0.63;;;9.80;36.60;;;;;;6241162;28;20217;-61
2022/01/22 12:57:16;;;;;;;0.27;0.27;;;9.80;37.30;;;;;;6248725;28;20277;-61
2022/01/22 13:00:19;;;;;;;0.10;0.10;;;9.90;37.10;;;;;;6248402;28;20214;-61
2022/01/22 13:03:34;;;;;;;0.30;0.30;;;10.20;36.70;;;;;;6248699;28;20216;-60
2022/01/22 13:06:43;;;;;;;0.40;0.20;;;10.40;36.00;;;;;;6278829;28;20240;-61
2022/01/22 13:10:06;;;;;;;0.27;0.20;;;10.70;35.70;;;;;;6248547;28;20179;-60
2022/01/22 13:13:07;;;;;;;0.77;0.30;;;10.80;34.50;;;;;;6231319;28;20278;-61
2022/01/22 13:16:16;;;;;;;0.20;0.20;;;10.40;34.90;;;;;;6227467;28;20225;-61
2022/01/22 13:19:18;;;;;;;0.93;0.30;;;10.30;35.80;;;;;;6263258;28;20209;-61
2022/01/22 13:22:19;;;;;;;2.23;0.40;;;10.30;35.40;;;;;;6247504;28;20193;-61
2022/01/22 13:25:20;;;;;;;1.30;0.37;;;10.40;36.20;;;;;;6224365;28;20193;-61
2022/01/22 13:28:28;;;;;;;0.33;0.13;;;10.60;35.90;;;;;;6273545;28;20271;-61
2022/01/22 13:31:28;;;;;;;0.20;0.10;;;10.50;35.90;;;;;;6231560;28;20211;-62
2022/01/22 13:34:47;;;;;;;0.13;0.13;;;10.50;35.90;;;;;;6243056;28;20225;-61
2022/01/22 13:47:55;;;;;;;0.20;0.20;;;10.70;34.50;;;;;;6275252;28;20274;-62
2022/01/22 13:50:57;;;;;;;0.50;0.20;;;10.90;34.50;;;;;;6233670;28;20194;-61
2022/01/22 13:53:59;;;;;;;0.10;0.10;;;12.20;32.30;;;;;;6224156;28;20248;-61
2022/01/22 13:57:06;;;;;;;0.20;0.20;;;13.00;29.90;;;;;;6263939;28;20191;-61
2022/01/22 14:00:19;;;;;;;0.23;0.23;;;13.60;29.90;;;;;;6280600;28;20182;-60
2022/01/22 14:06:33;;;;;;;0.53;0.40;;;13.20;30.20;;;;;;6260274;28;20251;-60
2022/01/22 14:09:34;;;;;;;0.10;0.10;;;13.30;29.80;;;;;;6248347;28;20257;-60
2022/01/22 14:12:49;;;;;;;0.47;0.47;;;12.00;30.50;;;;;;6249563;28;20193;-64
2022/01/22 14:15:49;;;;;;;0.50;0.50;;;11.80;32.90;;;;;;6242233;28;20198;-60
2022/01/22 14:18:51;;;;;;;0.37;0.37;;;11.10;32.10;;;;;;6247673;28;20232;-61
2022/01/22 14:21:56;;;;;;;0.53;0.30;;;10.70;33.00;;;;;;6245850;28;20201;-61
2022/01/22 14:25:13;;;;;;;0.30;0.20;;;10.00;33.60;;;;;;6261392;28;20268;-61
2022/01/22 14:28:14;;;;;;;0.50;0.27;;;9.20;34.50;;;;;;6228424;28;20206;-62
2022/01/22 14:31:24;;;;;;;0.27;0.27;;;8.80;35.20;;;;;;6234740;28;20189;-61
2022/01/22 14:34:38;;;;;;;0.27;0.27;;;9.30;34.10;;;;;;6259830;28;20201;-61
2022/01/22 14:37:38;;;;;;;1.20;0.30;;;8.70;34.60;;;;;;6236038;28;20249;-61
2022/01/22 14:44:24;;;;;;;0.37;0.30;;;8.30;35.40;;;;;;6235102;28;20238;-59
2022/01/22 14:47:27;;;;;;;0.40;0.40;;;8.30;35.90;;;;;;6245006;28;20195;-59
2022/01/22 14:50:32;;;;;;;0.50;0.30;;;8.30;35.30;;;;;;6246087;28;20195;-60
2022/01/22 14:53:32;;;;;;;0.20;0.20;;;7.90;35.60;;;;;;6248539;28;20193;-59
2022/01/22 14:56:33;;;;;;;0.20;0.20;;;7.60;35.50;;;;;;6244223;28;20198;-60
2022/01/22 14:59:36;;;;;;;0.40;0.40;;;7.30;37.00;;;;;;6249672;28;20264;-60
2022/01/22 15:02:38;;;;;;;0.17;0.17;;;7.20;37.60;;;;;;6234735;28;20194;-60
2022/01/22 15:05:39;;;;;;;0.63;0.37;;;7.20;37.80;;;;;;6231902;28;20195;-60
2022/01/22 15:08:40;;;;;;;0.20;0.20;;;7.20;37.80;;;;;;6242411;28;20204;-60
2022/01/22 15:11:40;;;;;;;0.20;0.20;;;6.90;38.20;;;;;;6243865;28;20253;-60
2022/01/22 15:14:42;;;;;;;0.30;0.30;;;6.80;38.50;;;;;;6230238;28;20292;-59
2022/01/22 15:20:49;;;;;;;5.00;1.60;;;6.80;38.30;;;;;;6231832;28;20199;-60
2022/01/22 15:23:50;;;;;;;1.37;0.87;;;6.70;38.60;;;;;;6228472;28;20190;-60
2022/01/22 15:26:51;;;;;;;1.63;1.10;;;6.50;38.90;;;;;;6243411;28;20185;-60
2022/01/22 15:29:55;;;;;;;1.20;1.00;;;6.50;39.50;;;;;;6275236;28;20268;-60
2022/01/22 15:36:03;;;;;;;0.93;0.80;;;6.30;40.80;;;;;;6265691;28;20194;-61
2022/01/22 15:39:07;;;;;;;1.30;0.63;;;6.30;41.10;;;;;;6238839;28;20252;-61
2022/01/22 15:42:08;;;;;;;1.53;0.73;;;6.20;41.40;;;;;;6239304;28;20737;-60
2022/01/22 15:45:09;;;;;;;0.90;0.77;;;6.00;41.50;;;;;;6254223;28;20207;-60
2022/01/22 15:48:10;;;;;;;2.97;1.10;;;6.00;41.80;;;;;;6222486;28;20198;-60
2022/01/22 15:51:11;;;;;;;0.87;0.80;;;5.80;42.20;;;;;;6249205;28;20202;-59
2022/01/22 15:54:12;;;;;;;1.10;1.00;;;5.80;42.30;;;;;;6244851;28;20197;-57
2022/01/22 15:57:15;;;;;;;1.57;0.90;;;5.70;42.90;;;;;;6253555;28;20266;-57
2022/01/22 16:00:16;;;;;;;0.70;0.60;;;5.60;43.20;;;;;;6245392;28;20209;-56
2022/01/22 16:03:18;;;;;;;1.73;1.00;;;5.60;43.20;;;;;;6207097;28;20183;-53
2022/01/22 16:06:19;;;;;;;0.80;0.80;;;5.60;44.10;;;;;;6254240;28;20225;-57
2022/01/22 16:09:23;;;;;;;1.00;0.90;;;5.60;44.60;;;;;;6244656;28;20230;-56
2022/01/22 16:12:25;;;;;;;1.40;1.00;;;5.60;45.20;;;;;;6261847;28;20193;-57
2022/01/22 16:15:26;;;;;;;1.30;0.90;;;5.40;45.40;;;;;;6258106;28;20206;-59
2022/01/22 16:18:27;;;;;;;1.87;1.17;;;5.40;45.50;;;;;;6241538;28;20749;-58
2022/01/22 16:21:30;;;;;;;0.90;0.83;;;5.40;46.10;;;;;;6240772;28;20246;-57
2022/01/22 16:24:31;;;;;;;1.40;1.20;;;5.30;46.40;;;;;;6251983;28;20193;-52
2022/01/22 16:27:33;;;;;;;0.87;0.83;;;5.30;46.90;;;;;;6224556;28;20198;-59
2022/01/22 16:30:34;;;;;;;1.67;1.20;;;5.30;47.50;;;;;;6239160;28;20205;-58
2022/01/22 16:33:35;;;;;;;1.23;1.13;;;5.10;47.80;;;;;;6239959;28;20200;-57
2022/01/22 16:36:36;;;;;;;2.20;1.30;;;5.10;48.10;;;;;;6251957;28;20236;-59
2022/01/22 16:39:38;;;;;;;2.10;1.07;;;5.00;48.30;;;;;;6256553;28;20213;-59
2022/01/22 16:42:46;;;;;;;1.97;1.70;;;4.90;48.60;;;;;;6242908;28;20247;-59
2022/01/22 16:46:07;;;;;;;2.77;1.70;;;4.90;49.30;;;;;;6245521;28;20202;-61
2022/01/22 16:55:55;;;;;;;4.07;2.63;;;4.60;50.40;;;;;;6238609;28;20199;-61
2022/01/22 16:58:57;;;;;;;3.83;2.40;;;4.50;50.80;;;;;;6217448;28;20218;-60
2022/01/22 17:02:02;;;;;;;4.47;2.40;;;4.40;51.50;;;;;;6215461;28;20305;-61
2022/01/22 17:05:09;;;;;;;2.00;1.20;;;4.30;51.60;;;;;;6241236;28;20205;-61
2022/01/22 17:08:33;;;;;;;2.53;1.70;;;4.30;51.80;;;;;;6231886;28;20220;-61
2022/01/22 17:14:09;;;;;;;1.53;1.30;;;4.30;52.40;;;;;;6249008;28;20199;-60
2022/01/22 17:14:54;;;;;;;1.27;1.17;;;4.30;52.40;;;;;;6228841;28;20247;-60
2022/01/22 17:17:55;;;;;;;2.37;1.73;;;4.30;52.50;;;;;;6248231;28;20248;-60
2022/01/22 17:20:57;;;;;;;3.17;1.93;;;4.40;52.30;;;;;;6230021;28;20194;-61
2022/01/22 17:23:58;;;;;;;3.30;1.83;;;4.40;51.60;;;;;;6265360;28;20196;-61
2022/01/22 17:26:59;;;;;;;3.40;2.13;;;4.40;51.50;;;;;;6264332;28;20186;-60
2022/01/22 17:30:00;;;;;;;3.63;1.87;;;4.40;51.60;;;;;;6264576;28;20178;-60
2022/01/22 17:33:01;;;;;;;4.70;2.23;;;4.50;52.00;;;;;;6209673;28;20206;-61
2022/01/22 17:36:02;;;;;;;3.93;2.10;;;4.50;52.20;;;;;;6231617;28;20217;-62
2022/01/22 17:39:11;;;;;;;2.97;1.77;;;4.70;59.70;;;;;;6242434;28;20215;-63
2022/01/22 17:42:18;;;;;;;2.67;2.07;;;4.80;59.20;;;;;;6236686;28;20232;-61
2022/01/22 17:45:20;;;;;;;2.00;1.80;;;4.80;58.60;;;;;;6231336;28;20205;-59
2022/01/22 17:48:21;;;;;;;2.33;1.43;;;4.70;61.60;;;;;;6231802;28;20213;-61
2022/01/22 17:51:22;;;;;;;1.30;1.20;;;4.60;62.50;;;;;;6254566;28;20203;-61
2022/01/22 17:54:23;;;;;;;2.13;1.53;;;4.30;63.80;;;;;;6231509;28;20198;-60
2022/01/22 17:57:24;;;;;;;2.37;1.60;;;4.10;64.50;;;;;;6247545;28;20213;-61
2022/01/22 18:00:25;;;;;;;2.00;1.30;;;3.90;65.60;;;;;;6251732;28;20185;-60
2022/01/22 18:03:28;;;;;;;2.30;1.70;;;3.80;65.90;;;;;;6251770;28;20200;-61